Time;durP1;ratioP1;P1;durP2;ratioP2;P2;SDS_P1;SDS_P2;PMS_P1;PMS_P2;Temp;Humidity;BMP_temperature;BMP_pressure;BME280_temperature;BME280_humidity;BME280_pressure;Samples;Min_cycle;Max_cycle;Signal;HPM_P1;HPM_P2
2023/06/07 00:00:08;;;;;;;2.10;1.80;;;;;;;14.69;100.00;97723.44;1712285;75;683675;-71
2023/06/07 00:02:38;;;;;;;1.80;1.30;;;;;;;14.70;100.00;97721.44;1703715;75;688294;-74
2023/06/07 00:05:10;;;;;;;2.65;0.90;;;;;;;14.76;100.00;97722.16;1712266;75;677758;-70
2023/06/07 00:07:41;;;;;;;1.20;1.10;;;;;;;14.70;100.00;97722.19;1679795;75;2764424;-70
2023/06/07 00:10:13;;;;;;;1.40;1.25;;;;;;;14.68;100.00;97712.91;1700030;75;1744536;-70
2023/06/07 00:12:44;;;;;;;1.30;1.20;;;;;;;14.76;100.00;97718.66;1679068;75;2839968;-71
2023/06/07 00:15:17;;;;;;;1.50;1.30;;;;;;;14.69;100.00;97715.16;1700551;75;1707042;-70
2023/06/07 00:17:47;;;;;;;1.20;1.10;;;;;;;14.72;100.00;97718.16;1703937;75;680085;-71
2023/06/07 00:20:17;;;;;;;0.90;0.90;;;;;;;14.79;100.00;97721.19;1712234;75;683292;-71
2023/06/07 00:22:49;;;;;;;1.00;0.90;;;;;;;14.77;100.00;97722.91;1704120;75;672572;-72
2023/06/07 00:25:19;;;;;;;3.00;1.30;;;;;;;14.81;100.00;97723.44;1698322;75;1866514;-75
2023/06/07 00:27:49;;;;;;;0.80;0.80;;;;;;;14.76;100.00;97722.16;1691353;75;1772855;-75
2023/06/07 00:30:22;;;;;;;1.20;1.10;;;;;;;14.72;100.00;97726.44;1712530;75;686638;-70
2023/06/07 00:32:52;;;;;;;1.20;1.00;;;;;;;14.86;100.00;97725.41;1704746;75;675447;-70
2023/06/07 00:35:23;;;;;;;1.70;1.45;;;;;;;14.71;100.00;97728.44;1712429;75;676938;-71
2023/06/07 00:37:53;;;;;;;1.60;1.50;;;;;;;14.69;100.00;97733.69;1704582;75;680962;-74
2023/06/07 00:40:23;;;;;;;1.80;1.30;;;;;;;14.74;100.00;97735.69;1712668;75;704499;-71
2023/06/07 00:42:53;;;;;;;1.20;1.10;;;;;;;14.81;100.00;97735.19;1704427;75;695391;-74
2023/06/07 00:45:26;;;;;;;1.30;1.20;;;;;;;14.79;100.00;97731.44;1712467;75;676652;-70
2023/06/07 00:47:57;;;;;;;0.95;0.85;;;;;;;14.86;100.00;97728.94;1704392;75;732490;-71
2023/06/07 00:50:27;;;;;;;1.00;0.90;;;;;;;14.84;100.00;97733.44;1712606;75;677887;-74
2023/06/07 00:52:58;;;;;;;1.20;1.00;;;;;;;14.80;100.00;97725.44;1689611;75;1898834;-71
2023/06/07 00:55:29;;;;;;;1.10;1.00;;;;;;;14.84;100.00;97733.44;1712523;75;680007;-71
2023/06/07 00:58:00;;;;;;;1.30;1.20;;;;;;;14.76;100.00;97733.19;1701775;75;829581;-76
2023/06/07 01:00:33;;;;;;;0.80;0.80;;;;;;;14.87;100.00;97730.44;1710402;75;876390;-72
2023/06/07 01:03:03;;;;;;;0.80;0.80;;;;;;;14.93;100.00;97729.69;1689612;75;1885120;-73
2023/06/07 01:05:34;;;;;;;1.00;1.00;;;;;;;14.93;100.00;97722.16;1712329;75;688151;-71
2023/06/07 01:08:04;;;;;;;0.85;0.80;;;;;;;14.94;100.00;97728.44;1701516;75;864029;-73
2023/06/07 01:10:34;;;;;;;1.40;0.60;;;;;;;14.90;100.00;97723.91;1712296;75;682338;-72
2023/06/07 01:13:07;;;;;;;0.90;0.90;;;;;;;14.89;100.00;97718.91;1703504;75;739903;-71
2023/06/07 01:15:42;;;;;;;1.20;1.10;;;;;;;14.88;100.00;97720.16;1686678;75;2830300;-71
2023/06/07 01:18:14;;;;;;;1.40;1.30;;;;;;;14.87;100.00;97722.16;1689196;75;1917691;-73
2023/06/07 01:20:53;;;;;;;1.40;1.20;;;;;;;14.86;100.00;97714.41;1712790;75;683400;-71
2023/06/07 01:23:31;;;;;;;2.00;1.30;;;;;;;14.85;100.00;97713.66;1691100;75;1769581;-74
2023/06/07 01:26:04;;;;;;;1.10;0.95;;;;;;;14.90;100.00;97714.91;1677463;75;2896373;-71
2023/06/07 01:28:37;;;;;;;1.00;0.90;;;;;;;14.90;100.00;97712.88;1712027;75;691079;-75
2023/06/07 01:31:09;;;;;;;0.80;0.80;;;;;;;14.90;100.00;97717.66;1692126;75;1735545;-71
2023/06/07 01:33:39;;;;;;;2.10;1.80;;;;;;;14.83;100.00;97712.66;1712174;75;680103;-76
2023/06/07 01:36:11;;;;;;;1.60;1.30;;;;;;;14.83;100.00;97710.63;1701407;75;932178;-70
2023/06/07 01:38:44;;;;;;;1.50;1.30;;;;;;;14.79;100.00;97710.16;1712411;75;680432;-71
2023/06/07 01:41:16;;;;;;;1.30;1.00;;;;;;;14.82;100.00;97714.66;1690661;67;1794936;-72
2023/06/07 01:43:48;;;;;;;1.95;0.90;;;;;;;14.93;100.00;97719.41;1711880;75;701468;-71
2023/06/07 01:46:19;;;;;;;0.90;0.90;;;;;;;14.93;100.00;97705.63;1703005;75;801251;-71
2023/06/07 01:48:51;;;;;;;1.00;1.00;;;;;;;14.98;100.00;97704.09;1712441;75;676232;-71
2023/06/07 01:51:21;;;;;;;1.15;1.05;;;;;;;14.97;100.00;97705.38;1703038;75;792176;-72
2023/06/07 01:53:55;;;;;;;0.80;0.80;;;;;;;14.94;100.00;97701.63;1712406;75;677424;-71
2023/06/07 01:56:36;;;;;;;1.10;1.00;;;;;;;14.95;100.00;97703.09;1702903;75;775552;-71
2023/06/07 01:59:16;;;;;;;1.20;1.10;;;;;;;14.90;100.00;97706.63;1701972;75;908530;-72
2023/06/07 02:01:53;;;;;;;1.80;1.70;;;;;;;14.91;100.00;97699.84;1712814;75;674926;-71
2023/06/07 02:04:28;;;;;;;1.35;1.20;;;;;;;14.94;100.00;97695.38;1704509;75;681512;-72
2023/06/07 02:07:03;;;;;;;1.10;1.00;;;;;;;14.97;100.00;97692.34;1710479;75;886287;-71
2023/06/07 02:09:42;;;;;;;1.15;1.05;;;;;;;14.97;100.00;97691.59;1703996;75;728660;-70
2023/06/07 02:12:13;;;;;;;1.00;0.90;;;;;;;14.96;100.00;97695.59;1677806;75;2922278;-72
2023/06/07 02:14:45;;;;;;;2.70;2.00;;;;;;;14.79;100.00;97696.38;1709105;75;972423;-74
2023/06/07 02:17:16;;;;;;;1.40;1.30;;;;;;;14.90;100.00;97690.09;1702340;75;866344;-72
2023/06/07 02:19:47;;;;;;;1.40;1.30;;;;;;;14.95;100.00;97697.59;1712278;75;682179;-72
2023/06/07 02:22:18;;;;;;;1.20;1.10;;;;;;;14.97;100.00;97686.81;1704081;75;699380;-71
2023/06/07 02:24:51;;;;;;;1.70;1.50;;;;;;;14.91;100.00;97688.81;1712588;75;675935;-73
2023/06/07 02:27:21;;;;;;;1.50;1.30;;;;;;;14.98;100.00;97688.31;1688775;75;1975896;-72
2023/06/07 02:29:51;;;;;;;1.80;1.70;;;;;;;14.88;100.00;97687.81;1712161;75;679855;-73
2023/06/07 02:32:21;;;;;;;1.60;1.50;;;;;;;14.89;100.00;97688.59;1700893;75;988217;-71
2023/06/07 02:34:51;;;;;;;1.70;1.40;;;;;;;14.94;100.00;97689.84;1697894;75;1945685;-72
2023/06/07 02:37:23;;;;;;;1.30;1.20;;;;;;;14.94;100.00;97678.81;1704491;75;684637;-72
2023/06/07 02:39:56;;;;;;;1.40;1.30;;;;;;;14.97;100.00;97680.56;1709198;75;996398;-72
2023/06/07 02:42:26;;;;;;;1.40;1.30;;;;;;;14.98;100.00;97680.03;1702373;75;872643;-72
2023/06/07 02:44:56;;;;;;;0.90;0.90;;;;;;;14.99;100.00;97681.56;1712517;75;673163;-73
2023/06/07 02:47:26;;;;;;;1.50;1.20;;;;;;;14.95;100.00;97683.06;1704181;75;676960;-70
2023/06/07 02:49:57;;;;;;;2.45;1.45;;;;;;;14.96;100.00;97682.56;1712347;75;677497;-71
2023/06/07 02:52:28;;;;;;;1.50;1.40;;;;;;;14.97;100.00;97686.06;1704223;75;689348;-73
2023/06/07 02:55:01;;;;;;;1.50;1.40;;;;;;;14.93;100.00;97680.81;1712612;75;677199;-71
2023/06/07 02:57:31;;;;;;;1.30;1.20;;;;;;;14.95;100.00;97688.59;1701603;75;979540;-71
2023/06/07 03:00:10;;;;;;;1.70;1.60;;;;;;;14.85;100.00;97680.56;1712423;75;693365;-73
2023/06/07 03:02:40;;;;;;;2.10;1.65;;;;;;;14.90;100.00;97679.81;1703175;75;750397;-73
2023/06/07 03:05:12;;;;;;;1.60;1.50;;;;;;;14.82;100.00;97689.13;1712298;75;694633;-72
2023/06/07 03:07:42;;;;;;;1.70;1.60;;;;;;;14.89;100.00;97683.84;1691178;75;1714157;-78
2023/06/07 03:10:15;;;;;;;1.70;1.60;;;;;;;14.93;100.00;97685.56;1711795;75;682451;-71
2023/06/07 03:12:46;;;;;;;2.45;2.20;;;;;;;14.81;100.00;97680.06;1702932;75;743619;-74
2023/06/07 03:15:16;;;;;;;2.95;2.05;;;;;;;14.84;100.00;97692.88;1709005;75;913081;-76
2023/06/07 03:17:46;;;;;;;2.20;2.00;;;;;;;14.83;100.00;97690.59;1689183;75;1871690;-72
2023/06/07 03:20:18;;;;;;;1.45;1.35;;;;;;;14.93;100.00;97697.34;1709724;75;688259;-72
2023/06/07 03:22:48;;;;;;;2.25;1.30;;;;;;;14.94;100.00;97692.59;1699627;75;795215;-76
2023/06/07 03:25:21;;;;;;;1.40;1.30;;;;;;;14.97;100.00;97694.34;1709937;75;680102;-71
2023/06/07 03:27:51;;;;;;;1.45;1.30;;;;;;;14.91;100.00;97699.84;1701115;75;744765;-72
2023/06/07 03:30:22;;;;;;;2.00;1.80;;;;;;;14.86;100.00;97701.38;1707817;75;904097;-75
2023/06/07 03:32:52;;;;;;;2.95;1.70;;;;;;;14.88;100.00;97687.81;1700932;75;749702;-73
2023/06/07 03:35:23;;;;;;;1.70;1.50;;;;;;;14.94;100.00;97690.59;1710408;75;674262;-76
2023/06/07 03:37:53;;;;;;;2.30;1.50;;;;;;;14.93;100.00;97696.59;1687592;75;1896719;-74
2023/06/07 03:40:26;;;;;;;1.40;1.30;;;;;;;14.94;100.00;97698.84;1709894;75;723334;-74
2023/06/07 03:42:56;;;;;;;1.70;1.20;;;;;;;14.93;100.00;97700.09;1701478;75;752408;-70
2023/06/07 03:45:27;;;;;;;1.40;1.30;;;;;;;14.99;100.00;97700.09;1709533;75;680761;-73
2023/06/07 03:47:57;;;;;;;1.45;1.25;;;;;;;15.02;100.00;97702.59;1701467;75;749093;-71
2023/06/07 03:50:27;;;;;;;1.55;1.40;;;;;;;15.04;100.00;97697.31;1707340;75;838311;-73
2023/06/07 03:52:57;;;;;;;2.50;2.15;;;;;;;14.96;100.00;97701.88;1700834;75;748270;-72
2023/06/07 03:55:31;;;;;;;2.45;2.00;;;;;;;15.01;100.00;97700.31;1710367;75;741599;-74
2023/06/07 03:58:01;;;;;;;2.10;1.70;;;;;;;14.96;100.00;97699.13;1702197;75;725274;-71
2023/06/07 04:00:31;;;;;;;1.60;1.50;;;;;;;15.06;100.00;97708.59;1710589;75;676456;-73
2023/06/07 04:03:01;;;;;;;1.40;1.30;;;;;;;15.03;100.00;97711.59;1700367;75;804799;-72
2023/06/07 04:05:38;;;;;;;2.55;2.25;;;;;;;14.89;100.00;97708.63;1697215;75;1763001;-70
2023/06/07 04:08:09;;;;;;;2.45;1.90;;;;;;;15.06;100.00;97716.13;1701726;75;752939;-71
2023/06/07 04:10:44;;;;;;;5.00;2.55;;;;;;;15.04;100.00;97721.41;1710937;75;680582;-70
2023/06/07 04:13:14;;;;;;;2.45;2.25;;;;;;;15.12;100.00;97728.63;1700379;75;822901;-70
2023/06/07 04:15:45;;;;;;;3.65;3.00;;;;;;;15.09;100.00;97724.13;1709067;75;855143;-73
2023/06/07 04:18:16;;;;;;;4.00;3.60;;;;;;;15.10;100.00;97727.63;1651926;75;4887271;-72
2023/06/07 04:20:46;;;;;;;4.10;3.45;;;;;;;15.11;100.00;97718.88;1710894;75;686931;-72
2023/06/07 04:23:16;;;;;;;3.30;2.70;;;;;;;15.17;100.00;97727.13;1701741;75;746329;-74
2023/06/07 04:25:49;;;;;;;4.25;2.90;;;;;;;15.24;100.00;97725.84;1708696;75;861334;-70
2023/06/07 04:28:23;;;;;;;2.70;2.30;;;;;;;15.28;100.00;97726.34;1702413;75;739870;-72
2023/06/07 04:30:57;;;;;;;2.55;2.20;;;;;;;15.32;100.00;97729.59;1711097;75;667161;-73
2023/06/07 04:33:27;;;;;;;4.00;2.30;;;;;;;15.38;100.00;97733.09;1702359;75;740194;-73
2023/06/07 04:35:58;;;;;;;3.00;2.60;;;;;;;15.38;100.00;97729.59;1711157;75;676748;-72
2023/06/07 04:38:29;;;;;;;2.45;2.25;;;;;;;15.33;100.00;97729.09;1702449;75;761783;-71
2023/06/07 04:41:06;;;;;;;3.20;2.90;;;;;;;15.24;100.00;97732.13;1699565;75;1691117;-74
2023/06/07 04:43:37;;;;;;;4.00;3.40;;;;;;;15.29;100.00;97733.34;1699143;75;915257;-71
2023/06/07 04:46:09;;;;;;;2.80;2.40;;;;;;;15.42;100.00;97730.81;1706578;75;990198;-71
2023/06/07 04:48:41;;;;;;;2.20;2.00;;;;;;;15.50;100.00;97736.56;1699304;75;897477;-71
2023/06/07 04:51:13;;;;;;;2.45;2.25;;;;;;;15.48;100.00;97734.28;1709912;75;756262;-71
2023/06/07 04:53:44;;;;;;;3.40;3.10;;;;;;;15.41;100.00;97731.31;1701784;75;731720;-76
2023/06/07 04:56:18;;;;;;;5.80;3.00;;;;;;;15.42;100.00;97735.59;1710124;75;672422;-69
2023/06/07 04:58:48;;;;;;;2.40;2.20;;;;;;;15.53;100.00;97738.28;1701564;75;761341;-72
2023/06/07 05:01:18;;;;;;;3.30;3.00;;;;;;;15.53;100.00;97741.06;1707992;75;913879;-74
2023/06/07 05:03:49;;;;;;;3.05;2.30;;;;;;;15.68;100.00;97741.50;1700201;75;803908;-69
2023/06/07 05:06:19;;;;;;;2.40;2.20;;;;;;;15.81;100.00;97743.72;1708419;75;845830;-70
2023/06/07 05:08:50;;;;;;;2.75;2.30;;;;;;;15.73;100.00;97740.75;1686903;75;1963384;-71
2023/06/07 05:11:23;;;;;;;3.80;3.20;;;;;;;15.62;100.00;97749.06;1710573;75;677933;-70
2023/06/07 05:13:53;;;;;;;6.45;5.85;;;;;;;15.53;100.00;97750.06;1676703;75;2738098;-73
2023/06/07 05:16:24;;;;;;;8.00;5.00;;;;;;;15.81;100.00;97756.78;1684955;75;2783643;-72
2023/06/07 05:18:56;;;;;;;4.40;4.00;;;;;;;15.98;100.00;97762.97;1702298;75;738786;-72
2023/06/07 05:21:26;;;;;;;4.20;3.80;;;;;;;16.05;100.00;97767.22;1709837;75;674517;-71
2023/06/07 05:23:56;;;;;;;6.95;5.90;;;;;;;15.91;100.00;97761.50;1699879;75;762556;-74
2023/06/07 05:26:29;;;;;;;6.05;5.55;;;;;;;15.97;100.00;97759.47;1708000;75;799852;-70
2023/06/07 05:29:00;;;;;;;6.45;5.75;;;;;;;15.99;100.00;97756.19;1699928;75;746986;-69
2023/06/07 05:31:31;;;;;;;6.75;5.75;;;;;;;15.82;100.00;97761.78;1709913;75;682209;-71
2023/06/07 05:34:01;;;;;;;6.25;5.65;;;;;;;15.92;100.00;97763.00;1699853;75;790205;-71
2023/06/07 05:36:34;;;;;;;4.60;4.20;;;;;;;16.14;100.00;97758.63;1707950;75;825469;-70
2023/06/07 05:39:09;;;;;;;5.55;4.80;;;;;;;16.22;100.00;97764.34;1701211;75;770923;-68
2023/06/07 05:41:42;;;;;;;8.30;7.50;;;;;;;16.03;100.00;97778.03;1710184;75;678549;-70
2023/06/07 05:44:12;;;;;;;8.40;7.10;;;;;;;16.07;100.00;97773.72;1699032;75;913187;-70
2023/06/07 05:46:42;;;;;;;5.25;4.75;;;;;;;16.30;100.00;97762.53;1710057;75;678019;-70
2023/06/07 05:49:13;;;;;;;4.20;3.60;;;;;;;16.38;100.00;97757.97;1699683;75;738088;-72
2023/06/07 05:51:44;;;;;;;3.25;2.95;;;;;;;16.65;100.00;97763.81;1708859;75;675067;-69
2023/06/07 05:54:14;;;;;;;3.60;3.30;;;;;;;16.73;100.00;97767.50;1700516;75;770936;-71
2023/06/07 05:56:46;;;;;;;4.40;3.15;;;;;;;16.94;100.00;97776.91;1709016;75;781211;-72
2023/06/07 05:59:17;;;;;;;3.50;2.80;;;;;;;17.04;100.00;97766.25;1699217;75;840113;-71
2023/06/07 06:01:48;;;;;;;3.50;3.00;;;;;;;17.14;100.00;97774.97;1708404;75;778431;-75
2023/06/07 06:04:18;;;;;;;5.00;4.50;;;;;;;16.99;100.00;97762.28;1701023;75;741364;-71
2023/06/07 06:06:49;;;;;;;6.00;5.40;;;;;;;17.06;100.00;97763.00;1705882;75;978503;-74
2023/06/07 06:09:20;;;;;;;6.90;6.20;;;;;;;17.03;100.00;97764.78;1697925;75;887374;-72
2023/06/07 06:11:52;;;;;;;4.80;4.40;;;;;;;17.21;100.00;97755.78;1710171;75;672214;-70
2023/06/07 06:14:25;;;;;;;7.95;5.55;;;;;;;17.24;100.00;97754.75;1689709;75;1714506;-73
2023/06/07 06:16:55;;;;;;;7.90;6.95;;;;;;;17.23;100.00;97752.50;1701986;75;1437478;-71
2023/06/07 06:19:26;;;;;;;8.65;7.75;;;;;;;17.10;100.00;97752.38;1701171;75;726766;-69
2023/06/07 06:21:56;;;;;;;8.90;7.20;;;;;;;16.99;100.00;97761.53;1710430;75;668545;-70
2023/06/07 06:24:26;;;;;;;9.00;6.60;;;;;;;17.10;100.00;97761.44;1698563;75;903941;-71
2023/06/07 06:26:59;;;;;;;6.40;5.80;;;;;;;17.28;100.00;97762.03;1708844;75;670670;-71
2023/06/07 06:29:30;;;;;;;7.75;6.95;;;;;;;17.08;100.00;97758.44;1700069;75;755964;-70
2023/06/07 06:32:00;;;;;;;9.65;7.05;;;;;;;17.25;100.00;97756.25;1697039;75;1786611;-70
2023/06/07 06:34:31;;;;;;;6.30;5.70;;;;;;;17.28;100.00;97762.75;1698958;75;894257;-69
2023/06/07 06:37:01;;;;;;;4.20;3.80;;;;;;;17.51;100.00;97754.22;1640992;75;6454231;-74
2023/06/07 06:39:31;;;;;;;6.30;5.30;;;;;;;17.45;100.00;97755.03;1698816;75;931994;-73
2023/06/07 06:42:05;;;;;;;5.05;4.55;;;;;;;17.74;100.00;97760.97;1709908;75;686440;-71
2023/06/07 06:44:35;;;;;;;10.00;8.80;;;;;;;17.16;100.00;97755.84;1699631;75;725264;-70
2023/06/07 06:47:06;;;;;;;6.50;5.60;;;;;;;17.82;100.00;97759.16;1708828;75;680474;-70
2023/06/07 06:49:37;;;;;;;4.20;3.80;;;;;;;18.08;100.00;97766.13;1701387;75;736939;-71
2023/06/07 06:52:09;;;;;;;4.45;3.85;;;;;;;18.27;100.00;97771.66;1708791;75;771745;-70
2023/06/07 06:54:39;;;;;;;6.95;6.25;;;;;;;18.13;100.00;97770.84;1699132;75;830957;-74
2023/06/07 06:57:12;;;;;;;4.65;4.10;;;;;;;18.34;100.00;97768.28;1708840;75;695786;-70
2023/06/07 06:59:42;;;;;;;11.10;7.40;;;;;;;17.68;100.00;97774.16;1699811;75;836941;-74
2023/06/07 07:02:12;;;;;;;5.60;5.10;;;;;;;18.19;100.00;97779.09;1707766;75;875706;-75
2023/06/07 07:04:42;;;;;;;5.90;5.05;;;;;;;18.23;100.00;97779.50;1688044;75;1828992;-71
2023/06/07 07:07:13;;;;;;;3.50;3.20;;;;;;;18.52;100.00;97769.53;1710206;75;677033;-74
2023/06/07 07:09:43;;;;;;;4.90;4.40;;;;;;;18.25;100.00;97783.25;1698875;75;898520;-69
2023/06/07 07:12:16;;;;;;;6.50;4.20;;;;;;;18.43;100.00;97781.00;1710258;75;670743;-72
2023/06/07 07:14:46;;;;;;;3.35;3.00;;;;;;;18.68;100.00;97776.09;1701197;75;749119;-69
2023/06/07 07:17:16;;;;;;;2.90;2.60;;;;;;;18.77;100.00;97772.22;1709595;75;681547;-69
2023/06/07 07:19:47;;;;;;;5.15;4.65;;;;;;;18.74;100.00;97766.41;1700787;75;744184;-69
2023/06/07 07:22:17;;;;;;;7.40;6.35;;;;;;;18.44;100.00;97771.41;1708900;75;761784;-73
2023/06/07 07:24:47;;;;;;;8.65;6.60;;;;;;;18.62;100.00;97767.88;1701596;75;742287;-74
2023/06/07 07:27:22;;;;;;;7.05;5.90;;;;;;;18.49;100.00;97776.13;1709950;75;675612;-73
2023/06/07 07:29:52;;;;;;;9.15;7.20;;;;;;;18.49;100.00;97778.91;1700902;75;753103;-70
2023/06/07 07:32:23;;;;;;;8.55;7.50;;;;;;;18.24;100.00;97776.22;1709385;75;764725;-68
2023/06/07 07:34:53;;;;;;;12.45;8.20;;;;;;;18.35;100.00;97767.03;1688395;75;1790375;-75
2023/06/07 07:37:23;;;;;;;8.00;7.20;;;;;;;18.41;100.00;97780.78;1696555;75;1821977;-72
2023/06/07 07:39:53;;;;;;;9.40;8.00;;;;;;;18.24;100.00;97784.53;1701628;75;737794;-70
2023/06/07 07:42:26;;;;;;;8.00;7.20;;;;;;;18.32;100.00;97770.81;1710006;75;683129;-71
2023/06/07 07:44:56;;;;;;;7.80;6.45;;;;;;;18.39;100.00;97775.75;1699540;75;835960;-71
2023/06/07 07:47:26;;;;;;;7.00;5.50;;;;;;;18.61;100.00;97771.91;1709195;75;702528;-71
2023/06/07 07:49:57;;;;;;;8.70;6.80;;;;;;;18.62;100.00;97765.09;1701734;75;775659;-70
2023/06/07 07:52:27;;;;;;;7.90;6.60;;;;;;;18.60;100.00;97769.66;1710459;75;679568;-70
2023/06/07 07:55:01;;;;;;;7.70;6.25;;;;;;;18.62;100.00;97769.91;1699575;75;801053;-69
2023/06/07 07:57:33;;;;;;;7.45;6.70;;;;;;;18.49;100.00;97774.09;1706780;75;968694;-71
2023/06/07 08:00:04;;;;;;;7.15;6.35;;;;;;;18.64;100.00;97773.63;1701373;75;751415;-69
2023/06/07 08:02:34;;;;;;;6.75;6.05;;;;;;;18.72;100.00;97771.72;1710433;75;685574;-69
2023/06/07 08:05:07;;;;;;;6.05;5.45;;;;;;;18.81;100.00;97772.63;1701229;75;754770;-73
2023/06/07 08:07:38;;;;;;;7.90;6.80;;;;;;;18.66;100.00;97773.84;1710290;75;673643;-74
2023/06/07 08:10:10;;;;;;;8.00;7.00;;;;;;;18.55;100.00;97778.81;1701260;75;732809;-72
2023/06/07 08:12:42;;;;;;;8.10;6.70;;;;;;;18.64;100.00;97775.63;1710365;75;675536;-71
2023/06/07 08:15:14;;;;;;;5.70;5.20;;;;;;;18.63;100.00;97780.44;1698873;75;897644;-71
2023/06/07 08:17:44;;;;;;;7.20;5.90;;;;;;;18.62;100.00;97783.75;1710591;75;678793;-69
2023/06/07 08:20:15;;;;;;;8.15;7.15;;;;;;;18.50;100.00;97780.41;1701061;75;727827;-70
2023/06/07 08:22:50;;;;;;;6.40;5.40;;;;;;;18.81;100.00;97778.19;1710035;75;675718;-71
2023/06/07 08:25:21;;;;;;;6.90;4.90;;;;;;;18.95;100.00;97782.47;1700978;75;749969;-71
2023/06/07 08:27:54;;;;;;;4.70;3.65;;;;;;;19.22;100.00;97774.97;1710556;75;701817;-75
2023/06/07 08:30:24;;;;;;;6.20;5.60;;;;;;;19.04;100.00;97782.06;1700893;75;744588;-69
2023/06/07 08:32:54;;;;;;;6.60;5.85;;;;;;;19.21;100.00;97778.28;1710177;75;725395;-71
2023/06/07 08:35:24;;;;;;;7.00;6.15;;;;;;;19.11;100.00;97777.94;1700348;75;722162;-71
2023/06/07 08:37:57;;;;;;;6.50;5.35;;;;;;;19.00;100.00;97775.34;1709161;75;682676;-70
2023/06/07 08:40:29;;;;;;;5.60;4.80;;;;;;;19.55;100.00;97770.06;1698612;75;923037;-70
2023/06/07 08:43:02;;;;;;;7.30;6.60;;;;;;;19.37;100.00;97780.00;1707518;75;962959;-70
2023/06/07 08:45:32;;;;;;;6.85;6.05;;;;;;;19.41;100.00;97774.09;1700989;75;765463;-71
2023/06/07 08:48:06;;;;;;;6.00;4.90;;;;;;;19.57;100.00;97776.56;1707023;75;985610;-70
2023/06/07 08:50:37;;;;;;;4.30;3.90;;;;;;;19.93;100.00;97780.94;1697886;75;965066;-72
2023/06/07 08:53:15;;;;;;;5.70;4.70;;;;;;;19.94;100.00;97777.66;1695737;75;1925419;-69
2023/06/07 08:55:48;;;;;;;6.40;5.75;;;;;;;19.87;100.00;97767.19;1700538;75;756412;-73
2023/06/07 08:58:24;;;;;;;7.40;6.10;;;;;;;19.71;100.00;97774.56;1707271;75;950109;-69
2023/06/07 09:00:54;;;;;;;9.10;6.50;;;;;;;19.87;100.00;97772.00;1699121;75;882847;-70
2023/06/07 09:03:24;;;;;;;7.70;6.90;;;;;;;19.76;100.00;97775.75;1706548;75;935037;-72
2023/06/07 09:05:58;;;;;;;7.10;6.40;;;;;;;19.85;100.00;97778.09;1700849;75;738688;-70
2023/06/07 09:08:29;;;;;;;6.20;5.60;;;;;;;19.89;100.00;97770.19;1709889;75;685431;-72
2023/06/07 09:10:59;;;;;;;7.65;6.00;;;;;;;19.91;100.00;97773.16;1700347;75;751440;-69
2023/06/07 09:13:32;;;;;;;7.50;5.75;;;;;;;19.75;100.00;97777.78;1709663;75;677248;-73
2023/06/07 09:16:04;;;;;;;7.00;6.25;;;;;;;19.70;100.00;97775.09;1700854;75;742983;-69
2023/06/07 09:18:45;;;;;;;4.60;4.10;;;;;;;20.62;100.00;97770.63;1710002;75;681090;-71
2023/06/07 09:21:23;;;;;;;7.70;6.30;;;;;;;20.52;100.00;97770.31;1701334;75;740589;-71
2023/06/07 09:23:54;;;;;;;9.25;6.70;;;;;;;20.62;100.00;97767.84;1700668;75;762614;-70
2023/06/07 09:26:25;;;;;;;5.20;4.50;;;;;;;20.90;100.00;97771.97;1709979;75;675016;-69
2023/06/07 09:28:59;;;;;;;5.30;4.80;;;;;;;20.88;100.00;97766.97;1699804;75;845402;-73
2023/06/07 09:31:34;;;;;;;6.10;5.20;;;;;;;20.64;100.00;97757.66;1708852;75;737727;-73
2023/06/07 09:34:23;;;;;;;7.70;4.80;;;;;;;20.96;100.00;97759.41;1701445;75;681800;-71
2023/06/07 09:36:56;;;;;;;6.20;5.30;;;;;;;21.01;100.00;97766.13;1701598;75;676559;-71
2023/06/07 09:39:28;;;;;;;6.20;5.40;;;;;;;20.91;100.00;97765.13;1697525;75;1816565;-70
2023/06/07 09:42:00;;;;;;;8.60;6.30;;;;;;;20.61;100.00;97758.75;1701973;75;673655;-74
2023/06/07 09:44:34;;;;;;;5.90;5.30;;;;;;;20.72;100.00;97754.94;1709272;75;708172;-72
2023/06/07 09:47:04;;;;;;;6.35;5.10;;;;;;;20.88;99.78;97743.94;1699882;75;869526;-72
2023/06/07 09:49:38;;;;;;;5.20;4.30;;;;;;;21.21;100.00;97750.66;1709547;75;675927;-74
2023/06/07 09:52:16;;;;;;;4.20;3.80;;;;;;;21.24;99.82;97746.81;1701401;75;680163;-70
2023/06/07 09:54:48;;;;;;;4.50;4.10;;;;;;;21.66;93.11;97753.00;1708698;75;682099;-71
2023/06/07 09:57:35;;;;;;;5.65;4.40;;;;;;;21.59;95.06;97739.03;1700129;75;760292;-74
2023/06/07 10:00:14;;;;;;;5.10;4.60;;;;;;;21.70;92.14;97736.69;1700160;75;830116;-72
2023/06/07 10:02:45;;;;;;;7.20;4.80;;;;;;;21.77;84.42;97737.25;1709149;75;675232;-69
2023/06/07 10:05:17;;;;;;;5.90;5.10;;;;;;;21.32;87.68;97744.06;1699026;75;936904;-73
2023/06/07 10:07:50;;;;;;;6.60;5.40;;;;;;;21.62;92.23;97743.50;1709319;75;680107;-74
2023/06/07 10:10:24;;;;;;;4.60;4.20;;;;;;;21.86;86.51;97733.97;1699987;75;750385;-72
2023/06/07 10:12:56;;;;;;;5.90;5.10;;;;;;;21.97;87.51;97739.22;1708995;75;708607;-75
2023/06/07 10:15:29;;;;;;;5.30;4.70;;;;;;;22.18;89.80;97741.16;1700606;75;751894;-72
2023/06/07 10:18:19;;;;;;;6.15;5.05;;;;;;;21.82;86.14;97731.53;1708965;75;736541;-73
2023/06/07 10:20:56;;;;;;;5.65;4.65;;;;;;;22.10;81.06;97730.72;1701030;75;753446;-71
2023/06/07 10:23:38;;;;;;;4.40;4.00;;;;;;;22.07;88.32;97726.22;1701491;75;680195;-69
2023/06/07 10:26:15;;;;;;;5.30;4.80;;;;;;;22.24;84.55;97727.78;1705758;75;961428;-69
2023/06/07 10:28:54;;;;;;;6.40;4.45;;;;;;;22.40;87.34;97729.31;1702087;75;679931;-71
2023/06/07 10:31:36;;;;;;;4.80;4.30;;;;;;;22.60;81.71;97735.28;1683908;75;2875834;-70
2023/06/07 10:34:09;;;;;;;4.55;4.00;;;;;;;23.02;81.93;97729.34;1699205;75;822003;-71
2023/06/07 10:36:41;;;;;;;5.20;4.20;;;;;;;22.77;78.43;97727.84;1707512;75;840253;-71
2023/06/07 10:39:12;;;;;;;4.15;3.30;;;;;;;22.96;78.63;97727.47;1699724;75;740388;-71
2023/06/07 10:41:43;;;;;;;8.05;4.20;;;;;;;22.78;74.73;97717.44;1709916;75;669997;-74
2023/06/07 10:44:15;;;;;;;4.80;3.40;;;;;;;22.96;71.62;97719.09;1701172;75;749326;-73
2023/06/07 10:46:47;;;;;;;5.35;3.45;;;;;;;22.81;70.66;97721.91;1707662;75;804467;-69
2023/06/07 10:49:39;;;;;;;4.85;3.55;;;;;;;22.68;77.02;97719.28;1700085;75;744117;-70
2023/06/07 10:52:14;;;;;;;5.00;3.20;;;;;;;23.14;78.16;97717.25;1701286;75;681606;-70
2023/06/07 10:54:45;;;;;;;4.90;3.30;;;;;;;23.32;73.31;97709.75;1706561;75;861784;-74
2023/06/07 10:57:16;;;;;;;4.55;3.70;;;;;;;23.07;71.84;97704.03;1700901;75;687016;-73
2023/06/07 10:59:46;;;;;;;4.80;3.80;;;;;;;22.84;70.42;97709.63;1709921;75;672212;-68
2023/06/07 11:02:29;;;;;;;4.00;3.60;;;;;;;23.28;68.11;97714.25;1702223;75;673945;-70
2023/06/07 11:05:03;;;;;;;4.40;3.30;;;;;;;23.66;70.52;97707.81;1674797;75;1843500;-69
2023/06/07 11:07:37;;;;;;;4.30;3.30;;;;;;;23.83;67.70;97701.59;1672409;75;3721580;-71
2023/06/07 11:10:36;;;;;;;4.30;3.40;;;;;;;23.79;68.03;97697.16;1701923;75;673255;-69
2023/06/07 11:13:07;;;;;;;4.70;3.05;;;;;;;24.08;67.04;97701.69;1701342;75;759099;-70
2023/06/07 11:15:40;;;;;;;4.20;3.50;;;;;;;23.89;65.23;97702.88;1708581;75;688664;-70
2023/06/07 11:18:13;;;;;;;5.40;4.10;;;;;;;24.10;64.54;97691.41;1701419;75;687735;-70
2023/06/07 11:20:51;;;;;;;5.90;3.10;;;;;;;24.19;65.90;97687.25;1709690;75;679161;-70
2023/06/07 11:23:26;;;;;;;4.85;3.90;;;;;;;24.07;66.45;97689.00;1700556;75;758911;-72
2023/06/07 11:26:00;;;;;;;7.30;4.20;;;;;;;23.92;66.07;97693.34;1707324;75;730491;-71
2023/06/07 11:28:33;;;;;;;3.90;3.30;;;;;;;24.21;68.08;97693.75;1699595;75;732940;-69
2023/06/07 11:31:05;;;;;;;4.00;3.60;;;;;;;23.78;69.96;97687.25;1709647;75;670894;-73
2023/06/07 11:33:38;;;;;;;6.80;3.70;;;;;;;24.01;69.00;97686.41;1698287;75;892817;-69
2023/06/07 11:36:09;;;;;;;4.10;3.40;;;;;;;23.89;72.51;97677.72;1705431;75;932989;-71
2023/06/07 11:38:39;;;;;;;4.70;3.70;;;;;;;23.99;71.22;97683.44;1697888;75;949315;-75